createdAt,value
2019-03-29T00:01:26.751Z,1.29
2019-03-29T00:03:57.798Z,1.39
2019-03-29T00:06:29.049Z,1.39
2019-03-29T00:09:01.964Z,1.40
2019-03-29T00:11:35.282Z,1.38
2019-03-29T00:14:10.129Z,1.31
2019-03-29T00:16:41.294Z,1.42
2019-03-29T00:19:12.466Z,1.42
2019-03-29T00:21:44.960Z,1.50
2019-03-29T00:24:16.090Z,1.35
2019-03-29T00:26:47.544Z,1.48
2019-03-29T00:29:19.055Z,1.45
2019-03-29T00:31:50.252Z,1.45
2019-03-29T00:34:21.495Z,1.46
2019-03-29T00:36:52.739Z,1.42
2019-03-29T00:39:25.505Z,1.41
2019-03-29T00:41:56.708Z,1.45
2019-03-29T00:44:28.820Z,1.43
2019-03-29T00:47:00.114Z,1.48
2019-03-29T00:49:31.296Z,1.50
2019-03-29T00:52:02.401Z,1.50
2019-03-29T00:54:33.497Z,1.52
2019-03-29T00:57:05.016Z,1.47
2019-03-29T00:59:36.358Z,1.58
2019-03-29T01:02:07.454Z,1.53
2019-03-29T01:04:38.737Z,1.59
2019-03-29T01:07:09.834Z,1.58
2019-03-29T01:09:41.050Z,1.61
2019-03-29T01:12:12.103Z,1.63
2019-03-29T01:14:43.303Z,1.58
2019-03-29T01:17:14.417Z,1.67
2019-03-29T01:19:45.626Z,1.71
2019-03-29T01:22:16.795Z,1.60
2019-03-29T01:24:47.998Z,1.56
2019-03-29T01:27:19.445Z,1.53
2019-03-29T01:29:51.576Z,1.52
2019-03-29T01:32:22.741Z,1.53
2019-03-29T01:34:53.931Z,1.59
2019-03-29T01:37:24.990Z,1.58
2019-03-29T01:39:57.241Z,1.67
2019-03-29T01:42:28.263Z,1.67
2019-03-29T01:45:00.392Z,1.72
2019-03-29T01:47:31.511Z,1.74
2019-03-29T01:50:02.944Z,1.75
2019-03-29T01:52:34.056Z,1.76
2019-03-29T01:55:08.281Z,1.80
2019-03-29T01:57:39.513Z,1.81
2019-03-29T02:00:10.735Z,1.84
2019-03-29T02:02:41.975Z,1.84
2019-03-29T02:05:13.013Z,1.81
2019-03-29T02:07:44.147Z,1.81
2019-03-29T02:10:15.454Z,1.89
2019-03-29T02:12:46.582Z,1.90
2019-03-29T02:15:17.709Z,1.86
2019-03-29T02:17:48.954Z,1.84
2019-03-29T02:20:20.039Z,1.86
2019-03-29T02:22:51.153Z,1.91
2019-03-29T02:25:22.359Z,1.90
2019-03-29T02:27:53.471Z,1.89
2019-03-29T02:30:24.728Z,1.87
2019-03-29T02:32:56.031Z,1.85
2019-03-29T02:35:27.025Z,1.88
2019-03-29T02:37:58.244Z,1.84
2019-03-29T02:40:29.340Z,1.85
2019-03-29T02:43:00.385Z,1.86
2019-03-29T02:45:31.474Z,1.85
2019-03-29T02:48:04.143Z,1.82
2019-03-29T02:50:36.652Z,1.88
2019-03-29T02:53:09.030Z,1.86
2019-03-29T02:55:40.122Z,1.85
2019-03-29T02:58:11.478Z,1.89
2019-03-29T03:00:42.579Z,1.90
2019-03-29T03:03:13.667Z,1.84
2019-03-29T03:05:44.834Z,1.85
2019-03-29T03:08:15.952Z,1.79
2019-03-29T03:10:47.149Z,1.76
2019-03-29T03:13:18.298Z,1.76
2019-03-29T03:15:50.848Z,1.82
2019-03-29T03:18:21.940Z,1.75
2019-03-29T03:20:52.985Z,1.77
2019-03-29T03:23:24.112Z,1.72
2019-03-29T03:25:55.240Z,1.77
2019-03-29T03:28:26.487Z,1.74
2019-03-29T03:30:57.654Z,1.76
2019-03-29T03:33:29.826Z,1.70
2019-03-29T03:36:02.173Z,1.69
2019-03-29T03:38:33.239Z,1.71
2019-03-29T03:41:04.287Z,1.67
2019-03-29T03:43:35.449Z,1.67
2019-03-29T03:46:07.734Z,1.66
2019-03-29T03:48:40.044Z,1.62
2019-03-29T03:51:11.098Z,1.62
2019-03-29T03:53:42.562Z,1.57
2019-03-29T03:56:15.169Z,1.59
2019-03-29T03:58:46.234Z,1.68
2019-03-29T04:01:17.338Z,1.63
2019-03-29T04:03:49.300Z,1.66
2019-03-29T04:06:20.365Z,1.64
2019-03-29T04:08:51.549Z,1.66
2019-03-29T04:11:22.631Z,1.65
2019-03-29T04:13:53.884Z,1.67
2019-03-29T04:16:25.127Z,1.68
2019-03-29T04:18:56.169Z,1.72
2019-03-29T04:21:27.253Z,1.72
2019-03-29T04:23:58.374Z,1.80
2019-03-29T04:26:29.710Z,1.82
2019-03-29T04:29:04.606Z,1.86
2019-03-29T04:31:33.623Z,1.88
2019-03-29T04:34:04.702Z,1.97
2019-03-29T04:36:36.008Z,2.02
2019-03-29T04:39:07.217Z,2.03
2019-03-29T04:41:38.494Z,2.08
2019-03-29T04:44:09.560Z,2.21
2019-03-29T04:46:40.920Z,2.16
2019-03-29T04:49:12.287Z,2.17
2019-03-29T04:51:43.400Z,2.18
2019-03-29T04:54:14.366Z,2.16
2019-03-29T04:56:45.493Z,2.26
2019-03-29T04:59:16.546Z,2.30
2019-03-29T05:01:47.673Z,2.36
2019-03-29T05:04:18.821Z,2.35
2019-03-29T05:06:49.921Z,2.39
2019-03-29T05:09:22.756Z,2.46
2019-03-29T05:11:53.890Z,2.46
2019-03-29T05:14:24.941Z,2.46
2019-03-29T05:16:56.051Z,2.48
2019-03-29T05:19:27.118Z,2.52
2019-03-29T05:21:58.340Z,2.61
2019-03-29T05:24:29.496Z,2.72
2019-03-29T05:27:00.569Z,2.71
2019-03-29T05:29:33.194Z,2.70
2019-03-29T05:32:04.334Z,2.70
2019-03-29T05:34:36.977Z,2.69
2019-03-29T05:37:08.167Z,2.81
2019-03-29T05:39:39.416Z,2.82
2019-03-29T05:42:10.627Z,2.97
2019-03-29T05:44:42.149Z,3.03
2019-03-29T05:47:13.207Z,3.04
2019-03-29T05:49:44.440Z,3.24
2019-03-29T05:52:15.493Z,3.22
2019-03-29T05:54:46.749Z,3.27
2019-03-29T05:57:19.376Z,3.42
2019-03-29T05:59:50.707Z,3.45
2019-03-29T06:02:21.887Z,3.40
2019-03-29T06:04:53.207Z,3.20
2019-03-29T06:07:24.426Z,3.20
2019-03-29T06:09:55.554Z,3.17
2019-03-29T06:12:27.031Z,3.09
2019-03-29T06:14:58.437Z,3.10
2019-03-29T06:17:29.501Z,2.99
2019-03-29T06:20:00.846Z,3.06
2019-03-29T06:22:31.998Z,3.05
2019-03-29T06:25:03.127Z,2.95
2019-03-29T06:27:34.152Z,3.05
2019-03-29T06:30:06.757Z,3.13
2019-03-29T06:32:37.951Z,3.23
2019-03-29T06:35:09.142Z,3.26
2019-03-29T06:37:43.075Z,3.29
2019-03-29T06:40:20.853Z,3.34
2019-03-29T06:42:52.057Z,3.27
2019-03-29T06:45:23.162Z,3.25
2019-03-29T06:47:54.212Z,3.18
2019-03-29T06:50:25.396Z,3.26
2019-03-29T06:52:56.710Z,3.39
2019-03-29T06:55:27.969Z,3.47
2019-03-29T06:57:59.171Z,3.60
2019-03-29T07:00:30.467Z,3.72
2019-03-29T07:03:01.792Z,3.73
2019-03-29T07:05:33.014Z,3.68
2019-03-29T07:08:04.422Z,3.76
2019-03-29T07:10:35.642Z,3.73
2019-03-29T07:13:06.780Z,3.71
2019-03-29T07:15:37.794Z,3.78
2019-03-29T07:18:12.485Z,3.95
2019-03-29T07:20:44.621Z,3.99
2019-03-29T07:23:15.717Z,4.10
2019-03-29T07:25:46.951Z,4.23
2019-03-29T07:28:20.203Z,4.30
2019-03-29T07:30:51.351Z,4.27
2019-03-29T07:33:22.479Z,4.37
2019-03-29T07:35:53.636Z,4.37
2019-03-29T07:38:24.662Z,4.47
2019-03-29T07:40:55.753Z,4.57
2019-03-29T07:43:26.782Z,4.51
2019-03-29T07:45:57.858Z,4.59
2019-03-29T07:48:29.008Z,4.62
2019-03-29T07:51:00.130Z,4.63
2019-03-29T07:53:31.157Z,4.71
2019-03-29T07:56:02.278Z,4.79
2019-03-29T07:58:35.818Z,4.86
2019-03-29T08:01:08.362Z,4.90
2019-03-29T08:03:39.682Z,4.98
2019-03-29T08:06:11.319Z,5.04
2019-03-29T08:08:43.286Z,5.16
2019-03-29T08:11:25.465Z,5.21
2019-03-29T08:13:47.290Z,5.27
2019-03-29T08:16:18.874Z,5.18
2019-03-29T08:18:49.987Z,5.16
2019-03-29T08:21:21.163Z,5.33
2019-03-29T08:23:52.324Z,5.34
2019-03-29T08:26:23.379Z,5.37
2019-03-29T08:28:54.585Z,5.49
2019-03-29T08:31:25.795Z,5.66
2019-03-29T08:33:56.876Z,5.71
2019-03-29T08:36:27.911Z,5.79
2019-03-29T08:39:00.163Z,5.87
2019-03-29T08:41:31.327Z,5.95
2019-03-29T08:44:02.460Z,6.05
2019-03-29T08:46:34.547Z,6.23
2019-03-29T08:49:06.668Z,6.27
2019-03-29T08:51:41.217Z,6.12
2019-03-29T08:54:11.702Z,6.19
2019-03-29T08:56:42.869Z,6.38
2019-03-29T08:59:17.228Z,6.35
2019-03-29T09:01:47.015Z,6.49
2019-03-29T09:04:21.495Z,6.37
2019-03-29T09:06:54.155Z,6.52
2019-03-29T09:09:26.533Z,6.61
2019-03-29T09:11:57.652Z,6.62
2019-03-29T09:14:31.383Z,6.60
2019-03-29T09:17:03.969Z,6.44
2019-03-29T09:19:36.422Z,6.54
2019-03-29T09:22:07.523Z,6.83
2019-03-29T09:24:40.103Z,6.86
2019-03-29T09:27:11.218Z,6.69
2019-03-29T09:29:42.387Z,6.68
2019-03-29T09:32:13.620Z,6.50
2019-03-29T09:34:45.766Z,6.73
2019-03-29T09:37:17.010Z,6.92
2019-03-29T09:39:48.497Z,7.11
2019-03-29T09:42:28.814Z,7.15
2019-03-29T09:44:52.565Z,7.38
2019-03-29T09:47:23.783Z,7.44
2019-03-29T09:49:58.060Z,7.48
2019-03-29T09:52:29.238Z,7.66
2019-03-29T09:55:00.427Z,7.65
2019-03-29T09:57:37.518Z,7.65
2019-03-29T10:00:19.286Z,7.50
2019-03-29T10:02:42.954Z,7.38
2019-03-29T10:05:14.112Z,7.57
2019-03-29T10:07:45.518Z,7.44
2019-03-29T10:10:20.176Z,7.54
2019-03-29T10:12:53.648Z,7.52
2019-03-29T10:15:25.180Z,7.36
2019-03-29T10:17:56.229Z,7.51
2019-03-29T10:20:27.249Z,7.63
2019-03-29T10:22:58.346Z,7.63
2019-03-29T10:25:29.439Z,7.56
2019-03-29T10:28:00.428Z,7.64
2019-03-29T10:30:36.681Z,7.55
2019-03-29T10:33:07.906Z,7.68
2019-03-29T10:35:50.963Z,7.83
2019-03-29T10:38:12.577Z,7.93
2019-03-29T10:40:44.629Z,8.00
2019-03-29T10:43:15.661Z,7.99
2019-03-29T10:45:46.743Z,7.97
2019-03-29T10:48:17.924Z,7.99
2019-03-29T10:50:49.303Z,7.86
2019-03-29T10:53:20.413Z,7.97
2019-03-29T10:55:51.599Z,8.22
2019-03-29T10:58:22.526Z,8.18
2019-03-29T11:00:53.529Z,8.38
2019-03-29T11:03:24.611Z,8.61
2019-03-29T11:05:55.823Z,8.18
2019-03-29T11:08:29.970Z,8.00
2019-03-29T11:11:08.589Z,7.99
2019-03-29T11:13:41.159Z,8.05
2019-03-29T11:16:12.930Z,8.12
2019-03-29T11:18:45.741Z,8.11
2019-03-29T11:21:16.779Z,8.30
2019-03-29T11:23:47.977Z,8.30
2019-03-29T11:26:19.973Z,8.13
2019-03-29T11:28:51.095Z,8.23
2019-03-29T11:31:25.353Z,8.19
2019-03-29T11:33:55.020Z,8.16
2019-03-29T11:36:26.098Z,8.16
2019-03-29T11:38:58.455Z,8.05
2019-03-29T11:41:30.018Z,8.09
2019-03-29T11:44:00.946Z,8.25
2019-03-29T11:46:32.027Z,8.23
2019-03-29T11:49:03.089Z,8.32
2019-03-29T11:51:36.751Z,8.45
2019-03-29T11:54:07.855Z,8.42
2019-03-29T11:56:39.024Z,8.68
2019-03-29T11:59:10.141Z,8.44
2019-03-29T12:01:41.413Z,8.32
2019-03-29T12:04:12.500Z,8.41
2019-03-29T12:06:43.689Z,8.38
2019-03-29T12:09:16.736Z,8.34
2019-03-29T12:11:47.578Z,8.58
2019-03-29T12:14:18.693Z,8.66
2019-03-29T12:16:49.960Z,8.70
2019-03-29T12:19:21.048Z,8.72
2019-03-29T12:21:53.492Z,8.67
2019-03-29T12:24:24.892Z,8.35
2019-03-29T12:26:58.266Z,8.35
2019-03-29T12:29:32.726Z,8.54
2019-03-29T12:32:04.180Z,8.69
2019-03-29T12:34:35.217Z,8.67
2019-03-29T12:37:06.268Z,8.64
2019-03-29T12:39:37.288Z,8.65
2019-03-29T12:42:09.908Z,8.63
2019-03-29T12:44:41.039Z,8.86
2019-03-29T12:47:12.068Z,8.75
2019-03-29T12:49:42.991Z,8.88
2019-03-29T12:52:14.130Z,8.81
2019-03-29T12:54:45.215Z,8.57
2019-03-29T12:57:16.443Z,8.72
2019-03-29T12:59:47.534Z,8.97
2019-03-29T13:02:18.738Z,8.91
2019-03-29T13:04:49.888Z,8.85
2019-03-29T13:07:20.924Z,8.67
2019-03-29T13:09:53.558Z,8.76
2019-03-29T13:12:24.824Z,8.86
2019-03-29T13:14:55.858Z,9.06
2019-03-29T13:17:28.581Z,9.08
2019-03-29T13:20:00.753Z,8.98
2019-03-29T13:22:34.846Z,8.81
2019-03-29T13:25:07.561Z,8.86
2019-03-29T13:27:39.951Z,8.74
2019-03-29T13:30:12.019Z,8.89
2019-03-29T13:32:43.151Z,8.88
2019-03-29T13:35:14.081Z,8.83
2019-03-29T13:37:44.968Z,8.82
2019-03-29T13:40:15.891Z,8.91
2019-03-29T13:42:46.942Z,8.95
2019-03-29T13:45:18.800Z,9.07
2019-03-29T13:47:49.836Z,9.13
2019-03-29T13:50:21.229Z,8.99
2019-03-29T13:52:52.273Z,8.90
2019-03-29T13:55:23.933Z,9.05
2019-03-29T13:57:55.259Z,9.11
2019-03-29T14:00:26.431Z,9.26
2019-03-29T14:02:57.737Z,9.33
2019-03-29T14:05:28.828Z,9.20
2019-03-29T14:07:59.893Z,9.10
2019-03-29T14:10:31.068Z,9.07
2019-03-29T14:13:02.286Z,9.13
2019-03-29T14:15:33.486Z,9.16
2019-03-29T14:18:04.653Z,9.11
2019-03-29T14:20:35.975Z,9.02
2019-03-29T14:23:09.087Z,8.97
2019-03-29T14:25:40.261Z,8.86
2019-03-29T14:28:11.310Z,8.91
2019-03-29T14:30:42.495Z,9.14
2019-03-29T14:33:14.601Z,9.06
2019-03-29T14:35:45.662Z,8.95
2019-03-29T14:38:16.794Z,8.92
2019-03-29T14:40:47.904Z,9.01
2019-03-29T14:43:19.218Z,8.97
2019-03-29T14:45:50.422Z,9.00
2019-03-29T14:48:21.797Z,8.87
2019-03-29T14:50:52.921Z,9.10
2019-03-29T14:53:24.186Z,9.16
2019-03-29T14:55:55.207Z,9.08
2019-03-29T14:58:26.441Z,8.99
2019-03-29T15:00:57.594Z,8.94
2019-03-29T15:03:29.695Z,8.80
2019-03-29T15:06:01.819Z,8.65
2019-03-29T15:08:33.192Z,8.65
2019-03-29T15:11:04.317Z,8.70
2019-03-29T15:13:35.504Z,8.68
2019-03-29T15:16:06.536Z,8.65
2019-03-29T15:18:40.303Z,8.57
2019-03-29T15:21:11.850Z,8.56
2019-03-29T15:23:42.812Z,8.53
2019-03-29T15:26:13.949Z,8.45
2019-03-29T15:28:45.105Z,8.32
2019-03-29T15:31:17.291Z,8.28
2019-03-29T15:33:49.429Z,8.31
2019-03-29T15:36:20.489Z,8.30
2019-03-29T15:38:51.597Z,8.29
2019-03-29T15:41:22.598Z,8.20
2019-03-29T15:43:53.630Z,8.09
2019-03-29T15:46:24.779Z,8.07
2019-03-29T15:48:55.796Z,7.97
2019-03-29T15:51:26.883Z,7.97
2019-03-29T15:53:57.922Z,7.93
2019-03-29T15:56:28.957Z,7.87
2019-03-29T15:58:59.967Z,7.85
2019-03-29T16:01:31.973Z,7.88
2019-03-29T16:04:03.995Z,7.88
2019-03-29T16:06:35.052Z,7.83
2019-03-29T16:09:06.446Z,7.81
2019-03-29T16:11:37.587Z,7.81
2019-03-29T16:14:08.589Z,7.79
2019-03-29T16:16:39.647Z,7.69
2019-03-29T16:19:10.642Z,7.66
2019-03-29T16:21:42.762Z,7.66
2019-03-29T16:24:14.947Z,7.60
2019-03-29T16:26:46.036Z,7.59
2019-03-29T16:29:17.196Z,7.60
2019-03-29T16:31:48.604Z,7.54
2019-03-29T16:34:19.772Z,7.53
2019-03-29T16:36:50.835Z,7.49
2019-03-29T16:39:21.878Z,7.49
2019-03-29T16:41:53.006Z,7.45
2019-03-29T16:44:24.382Z,7.46
2019-03-29T16:46:55.482Z,7.45
2019-03-29T16:49:28.253Z,7.44
2019-03-29T16:51:59.330Z,7.44
2019-03-29T16:54:36.857Z,7.46
2019-03-29T16:57:07.963Z,7.46
2019-03-29T16:59:39.064Z,7.47
2019-03-29T17:02:10.330Z,7.48
2019-03-29T17:04:42.494Z,7.47
2019-03-29T17:07:13.588Z,7.47
2019-03-29T17:09:44.589Z,7.45
2019-03-29T17:12:15.740Z,7.42
2019-03-29T17:14:48.802Z,7.43
2019-03-29T17:17:20.250Z,7.43
2019-03-29T17:19:51.483Z,7.45
2019-03-29T17:22:22.738Z,7.43
2019-03-29T17:24:57.207Z,7.42
2019-03-29T17:27:28.568Z,7.40
2019-03-29T17:30:00.041Z,7.42
2019-03-29T17:32:31.262Z,7.36
2019-03-29T17:35:02.457Z,7.37
2019-03-29T17:37:33.601Z,7.43
2019-03-29T17:40:06.868Z,7.48
2019-03-29T17:42:38.001Z,7.47
2019-03-29T17:45:15.661Z,7.48
2019-03-29T17:47:46.769Z,7.43
2019-03-29T17:50:17.954Z,7.36
2019-03-29T17:52:49.152Z,7.35
2019-03-29T17:55:20.158Z,7.32
2019-03-29T17:57:51.284Z,7.31
2019-03-29T18:00:27.438Z,7.28
2019-03-29T18:02:58.731Z,7.23
2019-03-29T18:05:29.822Z,7.21
2019-03-29T18:08:00.853Z,7.34
2019-03-29T18:10:31.890Z,7.36
2019-03-29T18:13:04.899Z,7.30
2019-03-29T18:15:35.972Z,7.24
2019-03-29T18:18:07.163Z,7.26
2019-03-29T18:20:38.347Z,7.24
2019-03-29T18:23:09.438Z,7.21
2019-03-29T18:25:41.539Z,7.24
2019-03-29T18:28:12.674Z,7.22
2019-03-29T18:30:43.790Z,7.24
2019-03-29T18:33:14.920Z,7.24
2019-03-29T18:35:47.050Z,7.29
2019-03-29T18:38:18.149Z,7.25
2019-03-29T18:40:49.405Z,7.27
2019-03-29T18:43:20.506Z,7.27
2019-03-29T18:45:51.729Z,7.29
2019-03-29T18:48:22.902Z,7.31
2019-03-29T18:50:53.933Z,7.31
2019-03-29T18:53:25.139Z,7.31
2019-03-29T18:55:56.233Z,7.34
2019-03-29T18:58:27.446Z,7.35
2019-03-29T19:00:58.475Z,7.37
2019-03-29T19:03:29.787Z,7.38
2019-03-29T19:06:01.837Z,7.35
2019-03-29T19:08:32.896Z,7.37
2019-03-29T19:11:04.039Z,7.33
2019-03-29T19:13:35.272Z,7.35
2019-03-29T19:16:06.340Z,7.39
2019-03-29T19:18:37.565Z,7.43
2019-03-29T19:21:08.753Z,7.39
2019-03-29T19:23:39.879Z,7.39
2019-03-29T19:26:10.917Z,7.38
2019-03-29T19:28:41.937Z,7.37
2019-03-29T19:31:12.944Z,7.37
2019-03-29T19:33:44.059Z,7.42
2019-03-29T19:36:15.418Z,7.39
2019-03-29T19:38:46.943Z,7.40
2019-03-29T19:41:17.968Z,7.43
2019-03-29T19:43:49.106Z,7.42
2019-03-29T19:46:20.209Z,7.44
2019-03-29T19:48:51.396Z,7.37
2019-03-29T19:51:22.710Z,7.43
2019-03-29T19:54:06.795Z,7.38
2019-03-29T19:56:31.026Z,7.33
2019-03-29T19:59:02.235Z,7.34
2019-03-29T20:01:33.328Z,7.32
2019-03-29T20:04:04.802Z,7.33
2019-03-29T20:06:37.101Z,7.38
2019-03-29T20:09:08.818Z,7.37
2019-03-29T20:11:40.347Z,7.37
2019-03-29T20:14:11.887Z,7.39
2019-03-29T20:16:43.035Z,7.37
2019-03-29T20:19:14.364Z,7.39
2019-03-29T20:21:45.518Z,7.39
2019-03-29T20:24:17.331Z,7.39
2019-03-29T20:26:48.446Z,7.43
2019-03-29T20:29:19.544Z,7.38
2019-03-29T20:31:50.884Z,7.40
2019-03-29T20:34:22.075Z,7.40
2019-03-29T20:36:53.128Z,7.42
2019-03-29T20:39:24.323Z,7.44
2019-03-29T20:41:55.479Z,7.44
2019-03-29T20:44:26.654Z,7.43
2019-03-29T20:46:57.805Z,7.44
2019-03-29T20:49:29.019Z,7.45
2019-03-29T20:52:00.329Z,7.38
2019-03-29T20:54:31.699Z,7.39
2019-03-29T20:57:02.758Z,7.38
2019-03-29T20:59:33.850Z,7.36
2019-03-29T21:02:04.966Z,7.34
2019-03-29T21:04:36.149Z,7.30
2019-03-29T21:07:07.236Z,7.20
2019-03-29T21:09:38.351Z,7.11
2019-03-29T21:12:09.472Z,7.04
2019-03-29T21:14:40.553Z,6.96
2019-03-29T21:17:11.882Z,6.91
2019-03-29T21:19:43.126Z,6.88
2019-03-29T21:22:14.216Z,6.85
2019-03-29T21:24:45.380Z,6.84
2019-03-29T21:27:16.576Z,6.77
2019-03-29T21:29:47.847Z,6.70
2019-03-29T21:32:18.965Z,6.66
2019-03-29T21:34:50.278Z,6.60
2019-03-29T21:37:21.562Z,6.58
2019-03-29T21:39:52.723Z,6.55
2019-03-29T21:42:23.851Z,6.54
2019-03-29T21:44:55.336Z,6.55
2019-03-29T21:47:26.358Z,6.55
2019-03-29T21:49:57.422Z,6.51
2019-03-29T21:52:28.699Z,6.49
2019-03-29T21:54:59.898Z,6.46
2019-03-29T21:57:30.935Z,6.50
2019-03-29T22:00:02.371Z,6.46
2019-03-29T22:02:33.942Z,6.43
2019-03-29T22:05:06.225Z,6.43
2019-03-29T22:07:38.448Z,6.38
2019-03-29T22:10:11.416Z,6.38
2019-03-29T22:12:43.422Z,6.37
2019-03-29T22:15:19.087Z,6.30
2019-03-29T22:17:50.403Z,6.28
2019-03-29T22:20:21.751Z,6.30
2019-03-29T22:22:53.015Z,6.32
2019-03-29T22:25:24.264Z,6.35
2019-03-29T22:27:55.573Z,6.32
2019-03-29T22:30:26.948Z,6.29
2019-03-29T22:32:58.139Z,6.28
2019-03-29T22:35:29.252Z,6.29
2019-03-29T22:38:01.930Z,6.29
2019-03-29T22:40:33.210Z,6.29
2019-03-29T22:43:07.304Z,6.23
2019-03-29T22:45:38.346Z,6.22
2019-03-29T22:48:10.489Z,6.26
2019-03-29T22:50:41.626Z,6.19
2019-03-29T22:53:12.845Z,6.20
2019-03-29T22:55:43.945Z,6.19
2019-03-29T22:58:16.028Z,6.16
2019-03-29T23:00:51.682Z,6.13
2019-03-29T23:03:22.955Z,6.17
2019-03-29T23:05:54.115Z,6.14
2019-03-29T23:08:25.170Z,6.10
2019-03-29T23:10:56.163Z,6.12
2019-03-29T23:13:28.874Z,6.19
2019-03-29T23:15:59.980Z,6.21
2019-03-29T23:18:33.632Z,6.25
2019-03-29T23:21:04.669Z,6.28
2019-03-29T23:23:35.819Z,6.28
2019-03-29T23:26:06.900Z,6.26
2019-03-29T23:28:38.384Z,6.28
2019-03-29T23:31:09.468Z,6.26
2019-03-29T23:33:40.773Z,6.32
2019-03-29T23:36:11.861Z,6.30
2019-03-29T23:38:49.156Z,6.35
2019-03-29T23:41:20.443Z,6.37
2019-03-29T23:43:51.562Z,6.32
2019-03-29T23:46:23.836Z,6.31
2019-03-29T23:48:55.163Z,6.34
